Time;durP1;ratioP1;P1;durP2;ratioP2;P2;SDS_P1;SDS_P2;PMS_P1;PMS_P2;Temp;Humidity;BMP_temperature;BMP_pressure;BME280_temperature;BME280_humidity;BME280_pressure;Samples;Min_cycle;Max_cycle;Signal;HPM_P1;HPM_P2
2023/01/16 00:00:18;;;;;;;12.35;1.50;;;;;;;3.60;100.00;99657.81;5257478;28;20086;-76
2023/01/16 00:02:48;;;;;;;4.95;1.08;;;;;;;3.62;100.00;99651.41;5244427;28;20105;-77
2023/01/16 00:05:19;;;;;;;14.73;1.52;;;;;;;3.66;100.00;99651.09;5244753;28;20020;-77
2023/01/16 00:07:49;;;;;;;5.15;1.60;;;;;;;3.67;100.00;99644.81;5244096;28;20021;-76
2023/01/16 00:10:20;;;;;;;12.10;1.13;;;;;;;3.65;100.00;99634.34;5244089;28;20060;-77
2023/01/16 00:12:50;;;;;;;5.07;1.10;;;;;;;3.66;100.00;99630.69;5244384;28;20381;-76
2023/01/16 00:15:21;;;;;;;8.20;1.33;;;;;;;3.63;100.00;99629.19;5226641;28;20060;-77
2023/01/16 00:17:51;;;;;;;8.68;1.45;;;;;;;3.59;100.00;99625.16;5244389;28;20035;-77
2023/01/16 00:20:22;;;;;;;5.47;1.45;;;;;;;3.55;100.00;99622.97;5244884;28;20413;-76
2023/01/16 00:22:53;;;;;;;3.72;1.45;;;;;;;3.49;100.00;99621.75;5226644;28;20554;-77
2023/01/16 00:25:23;;;;;;;6.20;0.98;;;;;;;3.48;100.00;99612.13;5244201;28;20024;-76
2023/01/16 00:27:54;;;;;;;9.65;1.27;;;;;;;3.51;100.00;99603.88;5257482;28;20041;-76
2023/01/16 00:30:24;;;;;;;10.38;1.27;;;;;;;3.50;100.00;99599.56;5226626;28;20052;-76
2023/01/16 00:32:55;;;;;;;6.88;1.38;;;;;;;3.50;100.00;99580.16;5244241;28;20063;-76
2023/01/16 00:35:26;;;;;;;9.00;1.30;;;;;;;3.50;100.00;99573.03;5244440;28;20024;-76
2023/01/16 00:37:57;;;;;;;4.20;1.25;;;;;;;3.45;100.00;99570.00;5225456;28;20099;-76
2023/01/16 00:40:28;;;;;;;3.83;1.00;;;;;;;3.43;100.00;99552.59;5244495;28;20120;-76
2023/01/16 00:42:58;;;;;;;7.40;1.75;;;;;;;3.41;100.00;99543.94;5226479;28;20050;-76
2023/01/16 00:45:29;;;;;;;9.32;1.55;;;;;;;3.44;100.00;99543.66;5244259;28;20099;-77
2023/01/16 00:47:59;;;;;;;6.28;1.23;;;;;;;3.42;100.00;99538.50;5243853;28;20111;-76
2023/01/16 00:50:30;;;;;;;11.20;1.52;;;;;;;3.41;100.00;99536.00;5243697;28;20493;-76
2023/01/16 00:53:00;;;;;;;3.33;0.70;;;;;;;3.41;100.00;99530.69;5244315;28;20513;-76
2023/01/16 00:55:33;;;;;;;4.32;1.20;;;;;;;3.33;100.00;99520.84;5244343;28;20028;-76
2023/01/16 00:58:04;;;;;;;6.63;1.08;;;;;;;3.26;100.00;99514.47;5243899;28;20074;-76
2023/01/16 01:00:35;;;;;;;12.55;1.42;;;;;;;3.26;100.00;99510.03;5257227;28;20032;-76
2023/01/16 01:03:06;;;;;;;8.88;2.60;;;;;;;3.36;100.00;99507.28;5246916;28;20055;-76
2023/01/16 01:05:37;;;;;;;5.68;1.23;;;;;;;3.37;100.00;99499.19;5230158;28;20052;-76
2023/01/16 01:08:08;;;;;;;6.07;0.85;;;;;;;3.37;100.00;99499.19;5247157;28;20024;-77
2023/01/16 01:10:38;;;;;;;4.90;1.00;;;;;;;3.36;100.00;99484.28;5229819;28;20051;-77
2023/01/16 01:13:10;;;;;;;2.83;0.80;;;;;;;3.34;100.00;99480.94;5247817;28;20464;-77
2023/01/16 01:15:40;;;;;;;8.27;0.90;;;;;;;3.30;100.00;99466.31;5229610;28;20028;-77
2023/01/16 01:18:11;;;;;;;9.80;1.52;;;;;;;3.28;100.00;99462.16;5247041;28;20481;-76
2023/01/16 01:20:41;;;;;;;5.85;1.10;;;;;;;3.29;100.00;99448.75;5247427;28;20017;-76
2023/01/16 01:23:12;;;;;;;8.43;1.17;;;;;;;3.23;100.00;99445.91;5247634;28;20024;-77
2023/01/16 01:25:42;;;;;;;8.40;0.90;;;;;;;3.26;100.00;99443.78;5229850;28;20024;-77
2023/01/16 01:28:12;;;;;;;6.97;1.13;;;;;;;3.32;100.00;99431.72;5246793;28;20031;-76
2023/01/16 01:30:43;;;;;;;3.78;1.17;;;;;;;3.25;100.00;99426.19;5247405;28;20021;-77
2023/01/16 01:33:13;;;;;;;3.80;0.80;;;;;;;3.24;100.00;99410.44;5247319;28;20023;-76
2023/01/16 01:35:44;;;;;;;4.88;1.00;;;;;;;3.25;100.00;99404.16;5247100;28;20029;-76
2023/01/16 01:38:15;;;;;;;4.65;1.00;;;;;;;3.22;100.00;99399.19;5228769;28;20021;-76
2023/01/16 01:40:45;;;;;;;5.18;0.82;;;;;;;3.13;100.00;99386.84;5247135;28;20035;-77
2023/01/16 01:43:17;;;;;;;9.07;1.02;;;;;;;3.09;100.00;99381.00;5247054;28;20024;-77
2023/01/16 01:45:54;;;;;;;4.13;1.13;;;;;;;3.07;100.00;99369.75;5247219;28;20032;-76
2023/01/16 01:48:30;;;;;;;5.05;0.93;;;;;;;3.07;100.00;99362.63;5246593;28;20036;-76
2023/01/16 01:51:08;;;;;;;11.07;1.27;;;;;;;3.13;100.00;99355.88;5246453;28;20370;-77
2023/01/16 01:53:43;;;;;;;6.70;1.00;;;;;;;3.18;100.00;99352.78;5246762;28;20077;-76
2023/01/16 01:56:30;;;;;;;;;;;;;;;3.20;100.00;99338.34;5247538;28;20023;-76
2023/01/16 01:59:07;;;;;;;5.53;1.30;;;;;;;3.22;100.00;99328.44;5251515;28;19930;-77
2023/01/16 02:01:39;;;;;;;6.65;1.25;;;;;;;3.21;100.00;99323.28;5254142;28;20033;-76
2023/01/16 02:04:15;;;;;;;5.10;0.93;;;;;;;3.13;100.00;99308.19;5247055;28;20553;-76
2023/01/16 02:06:49;;;;;;;10.48;2.55;;;;;;;3.11;100.00;99303.03;5246368;28;20094;-76
2023/01/16 02:09:21;;;;;;;6.15;1.38;;;;;;;3.11;100.00;99297.75;5228787;28;20021;-76
2023/01/16 02:11:54;;;;;;;8.77;1.42;;;;;;;3.03;100.00;99292.38;5245811;28;20101;-76
2023/01/16 02:14:27;;;;;;;10.57;1.23;;;;;;;2.99;100.00;99283.06;5228256;28;20029;-77
2023/01/16 02:20:20;;;;;;;4.30;1.52;;;;;;;3.15;100.00;99277.03;5245600;28;20024;-76
2023/01/16 02:23:19;;;;;;;2.90;1.20;;;;;;;3.20;100.00;99266.81;5228581;28;20032;-76
2023/01/16 02:26:11;;;;;;;3.97;1.02;;;;;;;3.22;100.00;99251.59;5246659;28;20447;-77
2023/01/16 02:28:51;;;;;;;6.25;2.13;;;;;;;3.28;100.00;99245.66;5235140;28;20036;-76
2023/01/16 02:31:49;;;;;;;14.20;2.38;;;;;;;3.33;100.00;99231.94;5228567;28;20024;-76
2023/01/16 02:34:40;;;;;;;7.78;1.25;;;;;;;3.34;100.00;99217.69;5245747;28;20040;-77
2023/01/16 02:37:38;;;;;;;5.57;1.48;;;;;;;3.35;100.00;99187.53;5228056;28;20024;-77
2023/01/16 02:40:14;;;;;;;13.43;2.30;;;;;;;3.36;100.00;99187.38;5236271;28;20086;-77
2023/01/16 02:43:14;;;;;;;12.10;1.80;;;;;;;3.40;100.00;99176.44;5228010;28;20078;-77
2023/01/16 02:46:14;;;;;;;11.88;1.73;;;;;;;3.50;100.00;99167.34;5246026;28;20373;-77
2023/01/16 02:49:02;;;;;;;6.18;1.70;;;;;;;3.57;100.00;99154.31;5245409;28;20441;-76
2023/01/16 02:51:50;;;;;;;9.77;1.73;;;;;;;3.62;100.00;99152.00;5227663;28;20035;-77
2023/01/16 02:54:24;;;;;;;9.57;1.80;;;;;;;3.77;100.00;99142.41;5232563;28;20020;-76
2023/01/16 02:57:02;;;;;;;9.27;1.50;;;;;;;3.92;100.00;99131.13;5227783;28;20083;-77
2023/01/16 02:59:33;;;;;;;11.48;2.47;;;;;;;4.07;100.00;99118.88;5227037;28;20023;-76
2023/01/16 03:02:05;;;;;;;8.60;1.45;;;;;;;4.13;100.00;99112.88;5227160;28;20052;-77
2023/01/16 03:04:36;;;;;;;9.90;2.33;;;;;;;4.25;100.00;99100.09;5236773;28;20033;-77
2023/01/16 03:07:35;;;;;;;6.32;1.20;;;;;;;4.29;100.00;99086.31;5245196;28;20517;-77
2023/01/16 03:10:38;;;;;;;9.65;1.60;;;;;;;4.41;100.00;99073.50;5244654;28;20090;-77
2023/01/16 03:13:19;;;;;;;11.80;1.95;;;;;;;4.48;100.00;99066.53;5245477;28;20035;-77
2023/01/16 03:16:43;;;;;;;9.77;1.50;;;;;;;4.50;100.00;99042.44;5245587;28;20484;-77
2023/01/16 03:19:24;;;;;;;7.55;1.17;;;;;;;4.59;100.00;99036.13;5132440;28;20085;-77
2023/01/16 03:22:12;;;;;;;7.88;1.52;;;;;;;4.67;100.00;99020.97;5258518;28;20032;-77
2023/01/16 03:24:54;;;;;;;4.95;1.60;;;;;;;4.64;100.00;99012.53;5244152;28;20028;-77
2023/01/16 03:27:46;;;;;;;5.72;1.75;;;;;;;4.59;100.00;99002.41;5244840;28;20095;-77
2023/01/16 03:30:49;;;;;;;12.98;2.35;;;;;;;4.52;100.00;98997.94;5233350;28;20063;-77
2023/01/16 03:33:25;;;;;;;10.10;2.38;;;;;;;4.45;100.00;98984.53;5245138;28;20016;-76
2023/01/16 03:36:04;;;;;;;13.20;1.77;;;;;;;4.43;100.00;98981.25;5245088;28;20031;-77
2023/01/16 03:38:38;;;;;;;13.95;3.72;;;;;;;4.48;100.00;98967.44;5244904;28;20036;-77
2023/01/16 03:41:13;;;;;;;14.05;1.73;;;;;;;4.49;100.00;98955.81;5244469;28;20031;-76
2023/01/16 03:43:47;;;;;;;5.72;1.73;;;;;;;4.48;100.00;98949.69;5245058;28;20021;-76
2023/01/16 03:46:24;;;;;;;9.98;1.58;;;;;;;4.51;100.00;98946.66;5231646;28;20033;-77
2023/01/16 03:49:19;;;;;;;6.60;1.60;;;;;;;4.51;100.00;98930.72;5244688;28;20036;-77
2023/01/16 03:52:01;;;;;;;17.98;2.58;;;;;;;4.57;100.00;98918.63;5244883;28;20035;-76
2023/01/16 03:54:58;;;;;;;10.13;2.17;;;;;;;4.56;100.00;98904.47;5215221;28;20039;-77
2023/01/16 03:57:44;;;;;;;12.43;2.17;;;;;;;4.56;100.00;98898.34;5244237;28;20016;-77
2023/01/16 04:00:16;;;;;;;10.35;1.38;;;;;;;4.57;100.00;98892.06;5257636;28;20036;-77
2023/01/16 04:03:08;;;;;;;11.25;2.08;;;;;;;4.59;100.00;98876.75;5244775;28;20393;-77
2023/01/16 04:05:49;;;;;;;14.90;1.35;;;;;;;4.62;100.00;98869.28;5244652;28;20025;-77
2023/01/16 04:08:31;;;;;;;5.75;1.33;;;;;;;4.65;100.00;98852.97;5243761;28;20035;-77
2023/01/16 04:11:03;;;;;;;6.28;1.55;;;;;;;4.70;100.00;98849.78;5244763;28;20706;-77
2023/01/16 04:13:38;;;;;;;15.07;2.38;;;;;;;4.73;100.00;98832.69;5226766;28;20481;-77
2023/01/16 04:16:14;;;;;;;11.02;1.35;;;;;;;4.77;100.00;98831.28;5226926;28;20114;-77
2023/01/16 04:18:45;;;;;;;;;;;;;;;4.83;100.00;98812.84;5213832;28;20031;-77
2023/01/16 04:21:17;;;;;;;8.90;1.70;;;;;;;4.87;100.00;98797.34;5244514;28;19936;-77
2023/01/16 04:23:47;;;;;;;13.55;1.73;;;;;;;4.93;100.00;98781.53;5244723;28;20431;-77
2023/01/16 04:26:18;;;;;;;9.85;2.83;;;;;;;4.95;100.00;98776.03;5244705;28;20095;-77
2023/01/16 04:28:53;;;;;;;10.52;1.52;;;;;;;4.96;100.00;98760.91;5244579;28;20382;-77
2023/01/16 04:31:24;;;;;;;7.82;1.23;;;;;;;4.96;100.00;98750.28;5244801;28;20032;-77
2023/01/16 04:33:55;;;;;;;4.32;1.52;;;;;;;4.94;100.00;98745.16;5227192;28;20055;-77
2023/01/16 04:36:25;;;;;;;8.98;1.05;;;;;;;5.08;100.00;98732.88;5251632;28;20051;-77
2023/01/16 04:38:55;;;;;;;6.85;0.93;;;;;;;5.06;100.00;98721.59;5238232;28;20038;-77
2023/01/16 04:41:50;;;;;;;10.65;1.40;;;;;;;5.04;100.00;98702.34;5249123;28;20031;-77
2023/01/16 04:44:17;;;;;;;7.82;1.13;;;;;;;5.00;100.00;98682.47;5248625;28;20048;-77
2023/01/16 04:46:47;;;;;;;9.15;1.30;;;;;;;4.97;100.00;98667.72;5249278;28;20078;-77
2023/01/16 04:49:19;;;;;;;6.35;1.02;;;;;;;4.97;100.00;98654.44;5248912;28;20085;-78
2023/01/16 04:51:50;;;;;;;4.53;0.95;;;;;;;4.94;100.00;98644.16;5232990;28;20048;-78
2023/01/16 04:54:20;;;;;;;9.10;1.13;;;;;;;4.89;100.00;98634.09;5250450;28;20051;-77
2023/01/16 04:56:51;;;;;;;8.75;1.50;;;;;;;4.88;100.00;98626.31;5248783;28;20104;-77
2023/01/16 04:59:21;;;;;;;5.70;1.08;;;;;;;4.86;100.00;98617.69;5257702;28;20379;-78
2023/01/16 05:01:51;;;;;;;3.78;1.27;;;;;;;4.81;100.00;98610.25;5236238;28;20078;-77
2023/01/16 05:04:22;;;;;;;4.70;1.13;;;;;;;4.82;100.00;98597.81;5249132;28;20358;-77
2023/01/16 05:06:53;;;;;;;6.80;1.33;;;;;;;4.79;100.00;98587.56;5247510;28;20035;-77
2023/01/16 05:09:23;;;;;;;10.43;1.60;;;;;;;4.85;100.00;98581.50;5248033;28;20024;-77
2023/01/16 05:11:54;;;;;;;8.48;1.20;;;;;;;4.83;100.00;98567.59;5247480;28;20044;-77
2023/01/16 05:14:24;;;;;;;10.73;1.40;;;;;;;4.83;100.00;98560.44;5248444;28;20051;-77
2023/01/16 05:16:55;;;;;;;8.70;2.65;;;;;;;4.83;100.00;98552.47;5264324;28;20454;-78
2023/01/16 05:19:25;;;;;;;6.32;2.88;;;;;;;4.84;100.00;98542.66;5249975;28;20139;-77
2023/01/16 05:21:56;;;;;;;6.18;1.15;;;;;;;4.84;100.00;98532.88;5247966;28;20025;-77
2023/01/16 05:24:26;;;;;;;16.17;2.33;;;;;;;4.82;100.00;98529.59;5247925;28;20020;-78
2023/01/16 05:26:57;;;;;;;11.90;1.42;;;;;;;4.78;100.00;98525.66;5230014;28;20115;-78
2023/01/16 05:29:27;;;;;;;10.35;1.55;;;;;;;4.79;100.00;98513.19;5247477;28;20033;-77
2023/01/16 05:31:58;;;;;;;13.60;1.77;;;;;;;4.73;100.00;98504.13;5247718;28;20452;-78
2023/01/16 05:34:28;;;;;;;12.60;1.95;;;;;;;4.70;100.00;98493.88;5247742;28;20020;-77
2023/01/16 05:36:59;;;;;;;19.30;2.38;;;;;;;4.65;100.00;98485.63;5247974;28;20499;-78
2023/01/16 05:39:29;;;;;;;14.00;2.20;;;;;;;4.63;100.00;98480.50;5247871;28;20016;-77
2023/01/16 05:42:00;;;;;;;11.73;1.75;;;;;;;4.62;100.00;98462.13;5230427;28;20670;-78
2023/01/16 05:44:30;;;;;;;10.73;1.60;;;;;;;4.59;100.00;98455.31;5248031;28;20108;-78
2023/01/16 05:47:01;;;;;;;13.63;1.77;;;;;;;4.61;100.00;98442.69;5230404;28;20032;-78
2023/01/16 05:49:31;;;;;;;14.85;1.55;;;;;;;4.61;100.00;98441.84;5247546;28;20116;-78
2023/01/16 05:52:01;;;;;;;6.13;1.20;;;;;;;4.59;100.00;98427.94;5249973;28;20040;-78
2023/01/16 05:54:32;;;;;;;5.88;1.25;;;;;;;4.58;100.00;98421.00;5259816;28;20064;-78
2023/01/16 05:57:03;;;;;;;12.00;1.63;;;;;;;4.58;100.00;98415.69;5246406;28;20032;-78
2023/01/16 05:59:34;;;;;;;5.65;1.00;;;;;;;4.56;100.00;98396.44;5256568;28;20084;-78
2023/01/16 06:02:04;;;;;;;8.43;1.40;;;;;;;4.54;100.00;98386.03;5232683;28;20042;-78
2023/01/16 06:04:34;;;;;;;8.75;1.27;;;;;;;4.52;100.00;98371.28;5247462;28;20031;-78
2023/01/16 06:07:05;;;;;;;8.90;1.17;;;;;;;4.55;100.00;98362.94;5229025;28;20043;-78
2023/01/16 06:09:35;;;;;;;14.27;1.20;;;;;;;4.53;100.00;98357.03;5247382;28;20031;-78
2023/01/16 06:12:09;;;;;;;17.85;1.48;;;;;;;4.54;100.00;98354.16;5247524;28;20031;-78
2023/01/16 06:14:40;;;;;;;9.57;1.33;;;;;;;4.55;100.00;98352.31;5248128;28;20020;-78
2023/01/16 06:17:14;;;;;;;4.15;1.30;;;;;;;4.56;100.00;98343.34;5241827;28;20538;-77
2023/01/16 06:19:44;;;;;;;6.85;0.82;;;;;;;4.55;100.00;98331.09;5247287;28;20126;-78
2023/01/16 06:22:15;;;;;;;10.70;0.90;;;;;;;4.56;100.00;98328.22;5230219;28;20028;-78
2023/01/16 06:24:46;;;;;;;3.85;0.85;;;;;;;4.54;100.00;98313.50;5230436;28;20024;-78
2023/01/16 06:27:16;;;;;;;4.70;1.00;;;;;;;4.49;100.00;98305.28;5231276;28;20032;-78
2023/01/16 06:29:47;;;;;;;4.38;1.10;;;;;;;4.46;100.00;98298.50;5248216;28;20027;-78
2023/01/16 06:32:17;;;;;;;4.78;0.95;;;;;;;4.48;100.00;98269.16;5249526;28;20036;-78
2023/01/16 06:34:48;;;;;;;11.38;2.47;;;;;;;4.47;100.00;98263.00;5231790;28;20070;-78
2023/01/16 06:37:18;;;;;;;7.60;0.90;;;;;;;4.48;100.00;98253.22;5248755;28;20116;-78
2023/01/16 06:39:49;;;;;;;7.03;0.80;;;;;;;4.48;100.00;98246.06;5248579;28;20012;-78
2023/01/16 06:42:20;;;;;;;10.68;2.42;;;;;;;4.47;100.00;98254.19;5231975;28;20035;-77
2023/01/16 06:44:50;;;;;;;4.10;0.77;;;;;;;4.50;100.00;98237.91;5230250;28;20033;-78
2023/01/16 06:47:21;;;;;;;3.00;0.93;;;;;;;4.48;100.00;98231.97;5248779;28;20044;-78
2023/01/16 06:49:51;;;;;;;6.25;0.88;;;;;;;4.45;100.00;98241.13;5231287;28;20025;-78
2023/01/16 06:52:22;;;;;;;5.38;0.80;;;;;;;4.47;100.00;98235.63;5232670;28;20081;-78
2023/01/16 06:54:52;;;;;;;7.13;2.00;;;;;;;4.47;100.00;98222.34;5233364;28;20028;-78
2023/01/16 06:57:23;;;;;;;4.45;0.80;;;;;;;4.45;100.00;98219.06;5249006;28;20818;-78
2023/01/16 06:59:53;;;;;;;4.93;0.75;;;;;;;4.41;100.00;98214.13;5262367;28;20076;-78
2023/01/16 07:02:24;;;;;;;3.00;0.70;;;;;;;4.38;100.00;98208.41;5233376;28;20074;-78
2023/01/16 07:04:54;;;;;;;6.43;0.82;;;;;;;4.38;100.00;98211.88;5251018;28;20562;-78
2023/01/16 07:07:25;;;;;;;4.78;0.80;;;;;;;4.36;100.00;98213.06;5249830;28;20032;-78
2023/01/16 07:09:55;;;;;;;4.70;0.90;;;;;;;4.38;100.00;98200.44;5250180;28;20089;-77
2023/01/16 07:12:25;;;;;;;2.33;0.55;;;;;;;4.37;100.00;98190.84;5250704;28;20028;-78
2023/01/16 07:23:28;;;;;;;4.18;0.60;;;;;;;4.28;100.00;98168.09;5251984;28;20495;-78
2023/01/16 07:26:02;;;;;;;2.90;0.50;;;;;;;4.28;100.00;98168.91;5235987;28;20028;-78
2023/01/16 07:28:33;;;;;;;2.85;0.80;;;;;;;4.30;100.00;98163.41;5250276;28;20067;-78
2023/01/16 07:31:06;;;;;;;4.57;0.70;;;;;;;4.24;100.00;98154.38;5252574;28;20396;-78
2023/01/16 07:33:37;;;;;;;0.55;0.50;;;;;;;4.22;100.00;98151.09;5233580;28;20035;-78
2023/01/16 07:36:08;;;;;;;1.90;0.47;;;;;;;4.23;100.00;98154.56;5235267;28;20020;-77
2023/01/16 07:38:39;;;;;;;3.15;0.90;;;;;;;4.18;100.00;98144.53;5254507;28;20473;-78
2023/01/16 07:41:09;;;;;;;0.98;0.25;;;;;;;4.15;100.00;98151.03;5238037;28;20039;-79
2023/01/16 07:43:40;;;;;;;0.85;0.40;;;;;;;4.12;100.00;98150.63;5235849;28;20028;-78
2023/01/16 07:46:10;;;;;;;1.65;0.30;;;;;;;4.10;100.00;98142.81;5254587;28;20025;-78
2023/01/16 07:48:41;;;;;;;3.38;0.40;;;;;;;4.08;100.00;98144.03;5255794;28;20086;-78
2023/01/16 07:51:11;;;;;;;4.65;0.70;;;;;;;4.05;100.00;98141.75;5254978;28;20046;-78
2023/01/16 07:53:42;;;;;;;1.98;0.40;;;;;;;4.04;100.00;98140.94;5255720;28;20491;-79
2023/01/16 07:56:12;;;;;;;1.48;0.40;;;;;;;4.03;100.00;98125.22;5236697;28;20060;-78
2023/01/16 07:58:43;;;;;;;0.65;0.20;;;;;;;4.03;100.00;98117.25;5238388;28;20012;-78
2023/01/16 08:01:13;;;;;;;1.13;0.30;;;;;;;4.07;100.00;98113.22;5264968;28;20048;-78
2023/01/16 08:03:44;;;;;;;0.95;0.30;;;;;;;4.01;100.00;98106.81;5238856;28;20048;-78
2023/01/16 08:06:14;;;;;;;0.30;0.15;;;;;;;4.01;100.00;98104.16;5255496;28;20051;-77
2023/01/16 08:08:45;;;;;;;6.93;0.30;;;;;;;3.99;100.00;98090.28;5248743;28;20119;-77
2023/01/16 08:14:06;;;;;;;1.35;0.30;;;;;;;4.00;100.00;98091.09;5235686;28;20028;-77
2023/01/16 08:16:37;;;;;;;0.40;0.20;;;;;;;3.99;100.00;98087.63;5247901;28;20435;-77
2023/01/16 08:19:07;;;;;;;0.35;0.20;;;;;;;4.02;100.00;98086.44;5250384;28;20009;-77
2023/01/16 08:21:38;;;;;;;0.70;0.30;;;;;;;3.98;100.00;98071.91;5232862;28;20301;-77
2023/01/16 08:24:09;;;;;;;0.47;0.20;;;;;;;4.01;100.00;98080.28;5251684;28;20024;-77
2023/01/16 08:26:40;;;;;;;0.15;0.10;;;;;;;4.02;100.00;98076.66;5251625;28;20727;-77
2023/01/16 08:29:10;;;;;;;2.05;0.70;;;;;;;4.05;100.00;98072.78;5251119;28;20039;-77
2023/01/16 08:31:41;;;;;;;2.05;0.13;;;;;;;4.05;100.00;98075.44;5250618;28;20370;-77
2023/01/16 08:34:11;;;;;;;0.98;0.20;;;;;;;4.10;100.00;98073.84;5249721;28;20031;-77
2023/01/16 08:36:42;;;;;;;0.90;0.32;;;;;;;4.12;100.00;98066.53;5250148;28;20025;-77
2023/01/16 08:39:12;;;;;;;1.05;0.22;;;;;;;4.13;100.00;98051.41;5248655;28;20024;-77
2023/01/16 08:53:06;;;;;;;1.00;0.28;;;;;;;4.16;100.00;98046.53;5248510;28;20077;-77
2023/01/16 08:55:38;;;;;;;0.52;0.30;;;;;;;4.21;100.00;98043.28;5246571;28;20032;-77
2023/01/16 08:58:09;;;;;;;2.20;0.20;;;;;;;4.22;100.00;98037.00;5246096;28;20024;-77
2023/01/16 09:00:39;;;;;;;0.45;0.30;;;;;;;4.29;100.00;98023.75;5261953;28;20099;-77
2023/01/16 09:03:10;;;;;;;2.45;0.40;;;;;;;4.34;100.00;98026.66;5218863;28;20029;-77
2023/01/16 09:05:41;;;;;;;1.35;0.50;;;;;;;4.43;100.00;98022.00;5235587;28;20028;-77
2023/01/16 09:08:11;;;;;;;2.55;0.20;;;;;;;4.43;100.00;98014.06;5246453;28;20088;-77
2023/01/16 09:13:48;;;;;;;0.95;0.40;;;;;;;4.40;100.00;98012.59;5244371;28;20050;-77
2023/01/16 09:13:50;;;;;;;0.43;0.20;;;;;;;4.31;100.00;97996.00;5244906;28;20488;-77
2023/01/16 09:16:24;;;;;;;0.47;0.30;;;;;;;4.51;100.00;98003.25;5245572;28;20040;-77
2023/01/16 09:18:54;;;;;;;1.65;0.30;;;;;;;4.45;100.00;97999.56;5245183;28;20033;-76
2023/01/16 09:21:25;;;;;;;0.40;0.30;;;;;;;4.51;100.00;97992.63;5245831;28;20023;-77
2023/01/16 09:23:55;;;;;;;0.45;0.20;;;;;;;4.51;100.00;97996.09;5247901;28;20075;-76
2023/01/16 09:26:26;;;;;;;0.32;0.20;;;;;;;4.51;100.00;97988.13;5247257;28;20027;-77
2023/01/16 09:28:57;;;;;;;0.75;0.30;;;;;;;4.46;100.00;97984.44;5230656;28;20025;-77
2023/01/16 09:31:27;;;;;;;0.45;0.40;;;;;;;4.48;100.00;97982.44;5249059;28;20389;-77
2023/01/16 09:33:58;;;;;;;1.85;0.40;;;;;;;4.53;100.00;97975.50;5249951;28;20115;-77
2023/01/16 09:36:28;;;;;;;2.78;0.70;;;;;;;4.60;100.00;97976.34;5251200;28;20021;-77
2023/01/16 09:38:59;;;;;;;0.85;0.32;;;;;;;4.70;100.00;97961.88;5237150;28;20026;-77
2023/01/16 09:44:30;;;;;;;0.75;0.30;;;;;;;5.07;100.00;97957.88;5253545;28;20027;-77
2023/01/16 09:47:02;;;;;;;0.88;0.30;;;;;;;5.15;100.00;97950.53;5252352;28;20032;-77
2023/01/16 09:49:50;;;;;;;1.27;0.30;;;;;;;5.24;100.00;97951.19;5237862;28;20501;-77
2023/01/16 09:58:35;;;;;;;0.52;0.32;;;;;;;5.35;100.00;97939.13;5250433;28;20016;-77
2023/01/16 10:01:13;;;;;;;0.75;0.40;;;;;;;5.43;100.00;97941.59;5243738;28;20039;-76
2023/01/16 10:03:44;;;;;;;0.63;0.30;;;;;;;5.51;100.00;97935.25;5238025;28;20408;-77
2023/01/16 10:06:32;;;;;;;1.80;0.30;;;;;;;5.45;100.00;97923.59;5246969;28;20025;-77
2023/01/16 10:09:18;;;;;;;0.90;0.40;;;;;;;5.36;100.00;97919.50;5216344;28;20161;-77
2023/01/16 10:11:58;;;;;;;0.68;0.45;;;;;;;5.39;100.00;97908.47;5246270;28;20028;-77
2023/01/16 10:14:56;;;;;;;2.17;0.43;;;;;;;5.48;100.00;97906.41;5246796;28;20029;-77
2023/01/16 10:17:32;;;;;;;2.28;0.43;;;;;;;5.53;100.00;97904.78;5235772;28;20484;-77
2023/01/16 10:20:15;;;;;;;1.52;0.47;;;;;;;5.51;100.00;97896.16;5232011;28;20098;-77
2023/01/16 10:22:48;;;;;;;0.85;0.50;;;;;;;5.52;100.00;97889.00;5231464;28;20029;-77
2023/01/16 10:25:25;;;;;;;0.98;0.50;;;;;;;5.51;100.00;97906.00;5216999;28;20043;-77
2023/01/16 10:27:58;;;;;;;1.92;0.50;;;;;;;5.48;100.00;97890.47;5250494;28;20028;-77
2023/01/16 10:30:36;;;;;;;0.65;0.40;;;;;;;5.39;100.00;97880.03;5248023;28;20555;-77
2023/01/16 10:33:33;;;;;;;0.82;0.43;;;;;;;5.39;100.00;97880.03;5248666;28;20029;-77
2023/01/16 10:36:05;;;;;;;2.70;0.52;;;;;;;5.41;100.00;97874.50;5247160;28;20029;-77
2023/01/16 10:38:51;;;;;;;2.20;0.47;;;;;;;5.46;100.00;97854.25;5228637;28;20025;-77
2023/01/16 10:50:21;;;;;;;3.72;0.70;;;;;;;5.69;100.00;97834.38;5246958;28;20042;-77
2023/01/16 10:52:51;;;;;;;1.17;0.30;;;;;;;5.75;100.00;97833.53;5247483;28;20025;-77
2023/01/16 10:55:22;;;;;;;1.80;0.45;;;;;;;5.89;100.00;97824.50;5247036;28;20078;-77
2023/01/16 10:57:58;;;;;;;0.40;0.25;;;;;;;5.95;100.00;97813.03;5246093;28;20502;-77
2023/01/16 11:00:35;;;;;;;1.58;0.38;;;;;;;6.05;100.00;97817.09;5259333;28;20112;-77
2023/01/16 11:03:17;;;;;;;0.45;0.43;;;;;;;6.04;100.00;97815.47;5233809;28;20090;-77
2023/01/16 11:05:48;;;;;;;1.08;0.55;;;;;;;6.01;100.00;97811.38;5233545;28;20024;-77
2023/01/16 11:08:19;;;;;;;1.10;0.40;;;;;;;5.97;100.00;97804.84;5245280;28;20632;-77
2023/01/16 11:10:50;;;;;;;0.47;0.32;;;;;;;5.95;100.00;97801.56;5246049;28;20063;-77
2023/01/16 11:19:27;;;;;;;0.93;0.30;;;;;;;5.79;100.00;97807.34;5245878;28;20024;-77
2023/01/16 11:22:11;;;;;;;0.55;0.50;;;;;;;5.77;100.00;97790.75;5246135;28;20055;-77
2023/01/16 11:24:44;;;;;;;0.60;0.43;;;;;;;5.65;100.00;97795.91;5243905;28;20020;-78
2023/01/16 11:27:21;;;;;;;1.30;0.52;;;;;;;5.52;100.00;97785.31;5244433;28;20396;-78
2023/01/16 11:29:54;;;;;;;0.73;0.43;;;;;;;5.49;100.00;97783.09;5250734;28;20024;-79
2023/01/16 11:32:28;;;;;;;0.98;0.50;;;;;;;5.43;100.00;97784.72;5232530;28;20036;-78
2023/01/16 11:34:58;;;;;;;0.20;0.20;;;;;;;5.38;100.00;97779.22;5219781;28;20024;-78
2023/01/16 11:37:29;;;;;;;2.17;0.50;;;;;;;5.39;100.00;97771.03;5249515;28;20031;-78
2023/01/16 11:40:04;;;;;;;2.42;0.70;;;;;;;5.43;100.00;97774.09;5233016;28;20021;-78
2023/01/16 11:48:25;;;;;;;1.58;0.50;;;;;;;5.51;100.00;97757.09;5251403;28;20154;-78
2023/01/16 11:50:57;;;;;;;1.67;0.90;;;;;;;5.74;100.00;97751.28;5250503;28;20020;-78
2023/01/16 11:53:33;;;;;;;1.13;0.40;;;;;;;5.61;100.00;97744.16;5234207;28;20036;-78
2023/01/16 11:56:04;;;;;;;1.30;0.50;;;;;;;5.58;100.00;97737.44;5233175;28;20052;-78
2023/01/16 11:58:53;;;;;;;3.40;0.80;;;;;;;5.64;100.00;97746.41;5233971;28;20021;-77
2023/01/16 12:08:07;;;;;;;1.98;0.73;;;;;;;5.70;100.00;97733.09;5241205;28;20364;-78
2023/01/16 12:10:47;;;;;;;1.10;0.70;;;;;;;5.64;100.00;97738.44;5221749;28;20033;-78
2023/01/16 12:16:37;;;;;;;2.22;0.98;;;;;;;5.66;100.00;97725.72;5252874;28;20086;-78
2023/01/16 12:19:26;;;;;;;3.35;1.10;;;;;;;5.69;100.00;97725.31;5252604;28;20060;-78
2023/01/16 12:22:17;;;;;;;3.17;0.90;;;;;;;5.68;100.00;97719.19;5228004;28;20028;-78
2023/01/16 12:24:53;;;;;;;2.92;1.35;;;;;;;5.68;100.00;97724.50;5269656;28;20052;-78
2023/01/16 12:27:39;;;;;;;4.47;3.22;;;;;;;5.67;100.00;97712.25;5252646;28;20024;-78
2023/01/16 12:30:34;;;;;;;6.78;5.25;;;;;;;5.69;100.00;97722.66;5230876;28;20032;-79
2023/01/16 12:33:12;;;;;;;5.53;2.78;;;;;;;5.66;100.00;97723.88;5256446;28;20105;-79
2023/01/16 12:36:06;;;;;;;6.15;3.55;;;;;;;5.64;100.00;97717.16;5256749;28;20032;-79
2023/01/16 12:38:50;;;;;;;6.20;2.05;;;;;;;5.57;100.00;97713.69;5262381;28;20026;-79
2023/01/16 12:44:32;;;;;;;3.75;1.63;;;;;;;5.45;100.00;97711.69;5257041;28;20082;-79
2023/01/16 12:47:32;;;;;;;3.28;1.05;;;;;;;5.36;100.00;97707.63;5235855;28;20027;-78
2023/01/16 12:50:19;;;;;;;1.50;0.95;;;;;;;5.24;100.00;97704.00;5243269;28;20051;-79
2023/01/16 12:53:28;;;;;;;1.65;0.85;;;;;;;5.21;100.00;97704.41;5249421;28;20028;-79
2023/01/16 12:56:12;;;;;;;1.13;0.73;;;;;;;5.07;100.00;97702.78;5214475;28;20020;-78
2023/01/16 12:58:47;;;;;;;1.25;0.60;;;;;;;5.08;100.00;97701.78;5250001;28;20081;-78
2023/01/16 13:01:24;;;;;;;;;;;;;;;5.05;100.00;97699.53;5240325;28;20397;-78
2023/01/16 13:04:25;;;;;;;4.13;0.85;;;;;;;5.06;100.00;97699.31;5234132;28;19922;-79
2023/01/16 13:06:57;;;;;;;2.60;1.50;;;;;;;5.09;100.00;97687.47;5240972;28;20051;-79
2023/01/16 13:09:39;;;;;;;1.10;0.93;;;;;;;5.02;100.00;97686.66;5265011;28;20510;-79
2023/01/16 13:15:09;;;;;;;1.63;0.70;;;;;;;5.02;100.00;97691.97;5257743;28;20027;-79
2023/01/16 13:17:45;;;;;;;1.17;0.90;;;;;;;5.02;100.00;97682.19;5235163;28;20157;-79
2023/01/16 13:20:19;;;;;;;0.93;0.60;;;;;;;5.04;100.00;97680.13;5249319;28;20029;-79